Oriental, NC (28571)

8:07 AM EST on February 14, 2016 (GMT -0500)
Oriental, NC | | Change Station
CLOSE
Current Station
Personal Weather Station
Location: Oriental, NC
Elevation: 13 ft
Nearby Weather Stations
Active Advisory: Special Statement

Elev 13 ft 35.03 °N, 76.70 °W | Updated 12 minutes ago

Clear
Clear
20.3 °F
Feels Like 14 °F
N
4.3
Wind Variable Wind from North

Today
High -- | Low -- °F
--% Chance of Precip.
Yesterday
High -- | Low -- °F
Precip. -- in
Pressure 30.54 in
Visibility -9999.0 miles
Clouds Clear
Windchill 14 °F
Dew Point 5 °F
Humidity 51%
Rainfall Not available.
Snow Depth Not available.
6:54 AM 5:48 PM
Waxing Crescent, 41% visible
METAR KNKT 141254Z 02014G21KT CLR M06/M17 A3055 RMK AO2 SLP342 T10611167
Pressure 30.54 in
Visibility -9999.0 miles
Clouds Clear
Windchill 14 °F
Dew Point 5 °F
Humidity 51%
Rainfall Not available.
Snow Depth Not available.
6:54 AM 5:48 PM
Waxing Crescent, 41% visible
METAR KNKT 141254Z 02014G21KT CLR M06/M17 A3055 RMK AO2 SLP342 T10611167

10-Day Weather Forecast

Almanac

Astronomy

Feb. 14, 2016 Rise Set
Actual Time
Civil Twilight
Nautical Twilight
Astronomical Twilight
Moon
Length of Visible Light
Length of Day
Tomorrow will be .
, % of the Moon is Illuminated

Today's Extremes

State Highs State Lows

Community

WunderPhotos

Upload Photos

1,892,777 photos uploaded!

WunderBlog® & News

Nearby

Air Quality

  Air Quality AQ Index Pollutant
Not available.

Snow Depth

Station Depth Elevation

Earthquake Activity

City Distance Mag. Time & Date
Minimum magnitude displayed is 2.5.

Coastal Water Temperatures

Place Temperature

Stations

Nearby Weather Stations

Station Location Temp. Windchill Dew Point Humidity Wind Precip. Elev Updated Type
                   

Watches & Warnings

Special Statement
Issued: 6:28 AM EST Feb. 14, 2016 – National Weather Service

... Very cold wind chill values this morning...

Brisk north winds and cold temperatures in the teens to lower 20s are
producing wind chill values in the single digits early this
morning.

Prolonged exposure to these wind chill temperatures is dangerous.
If venturing outside, wear layers of clothing including a hat and
gloves.


352 PM EST Sat Feb 13 2016

... Very cold wind chill values late tonight and Sunday morning...

Arctic high pressure will build into the region tonight bringing
northwest winds and very cold temperatures around 15-20 degrees by
late tonight. This will produce wind chill values in the single
digits early Sunday morning.

Prolonged exposure to these wind chill temperatures is dangerous.
If venturing outside, wear layers of clothing including a hat and
gloves.